sensor_id;sensor_type;location;lat;lon;timestamp;pressure;altitude;pressure_sealevel;temperature;humidity
30819;BME280;17546;42.674;23.284;2024-03-06T00:00:31;94478.34;;;14.45;43.27
30819;BME280;17546;42.674;23.284;2024-03-06T00:02:58;94483.69;;;14.43;43.36
30819;BME280;17546;42.674;23.284;2024-03-06T00:05:23;94494.66;;;14.60;43.12
30819;BME280;17546;42.674;23.284;2024-03-06T00:07:49;94470.38;;;14.55;42.78
30819;BME280;17546;42.674;23.284;2024-03-06T00:10:15;94458.16;;;14.39;42.78
30819;BME280;17546;42.674;23.284;2024-03-06T00:12:40;94499.66;;;14.61;42.72
30819;BME280;17546;42.674;23.284;2024-03-06T00:15:06;94471.44;;;14.33;43.26
30819;BME280;17546;42.674;23.284;2024-03-06T00:17:32;94467.59;;;14.36;42.78
30819;BME280;17546;42.674;23.284;2024-03-06T00:19:57;94484.06;;;14.53;42.73
30819;BME280;17546;42.674;23.284;2024-03-06T00:22:23;94474.81;;;14.44;42.80
30819;BME280;17546;42.674;23.284;2024-03-06T00:24:48;94501.25;;;14.57;42.85
30819;BME280;17546;42.674;23.284;2024-03-06T00:27:14;94503.22;;;14.62;42.96
30819;BME280;17546;42.674;23.284;2024-03-06T00:29:39;94473.47;;;14.51;42.42
30819;BME280;17546;42.674;23.284;2024-03-06T00:32:05;94470.22;;;14.47;42.65
30819;BME280;17546;42.674;23.284;2024-03-06T00:34:30;94470.00;;;14.45;42.55
30819;BME280;17546;42.674;23.284;2024-03-06T00:36:56;94488.63;;;14.56;42.61
30819;BME280;17546;42.674;23.284;2024-03-06T00:39:22;94475.78;;;14.47;42.62
30819;BME280;17546;42.674;23.284;2024-03-06T00:41:47;94483.31;;;14.52;42.63
30819;BME280;17546;42.674;23.284;2024-03-06T00:44:13;94497.88;;;14.64;42.81
30819;BME280;17546;42.674;23.284;2024-03-06T00:46:39;94501.41;;;14.64;42.54
30819;BME280;17546;42.674;23.284;2024-03-06T00:49:04;94485.22;;;14.63;42.72
30819;BME280;17546;42.674;23.284;2024-03-06T00:51:29;94481.22;;;14.58;42.30
30819;BME280;17546;42.674;23.284;2024-03-06T00:53:56;94496.72;;;14.73;42.18
30819;BME280;17546;42.674;23.284;2024-03-06T00:56:22;94486.84;;;14.72;42.15
30819;BME280;17546;42.674;23.284;2024-03-06T00:58:47;94490.53;;;14.80;41.96
30819;BME280;17546;42.674;23.284;2024-03-06T01:01:13;94477.19;;;14.73;41.98
30819;BME280;17546;42.674;23.284;2024-03-06T01:03:40;94493.50;;;14.69;42.06
30819;BME280;17546;42.674;23.284;2024-03-06T01:06:06;94505.19;;;14.67;42.16
30819;BME280;17546;42.674;23.284;2024-03-06T01:08:31;94500.97;;;14.60;42.60
30819;BME280;17546;42.674;23.284;2024-03-06T01:10:57;94512.72;;;14.53;42.74
30819;BME280;17546;42.674;23.284;2024-03-06T01:13:22;94483.19;;;14.25;42.39
30819;BME280;17546;42.674;23.284;2024-03-06T01:15:48;94485.59;;;14.35;42.55
30819;BME280;17546;42.674;23.284;2024-03-06T01:18:13;94498.31;;;14.49;42.29
30819;BME280;17546;42.674;23.284;2024-03-06T01:20:39;94502.47;;;14.42;42.55
30819;BME280;17546;42.674;23.284;2024-03-06T01:23:05;94500.94;;;14.41;42.62
30819;BME280;17546;42.674;23.284;2024-03-06T01:25:31;94484.09;;;14.15;42.97
30819;BME280;17546;42.674;23.284;2024-03-06T01:27:57;94481.75;;;14.19;42.96
30819;BME280;17546;42.674;23.284;2024-03-06T01:30:22;94467.53;;;14.22;42.67
30819;BME280;17546;42.674;23.284;2024-03-06T01:32:48;94464.19;;;14.24;42.81
30819;BME280;17546;42.674;23.284;2024-03-06T01:35:13;94477.22;;;14.35;42.72
30819;BME280;17546;42.674;23.284;2024-03-06T01:37:39;94479.94;;;14.21;42.80
30819;BME280;17546;42.674;23.284;2024-03-06T01:40:05;94493.88;;;14.40;42.78
30819;BME280;17546;42.674;23.284;2024-03-06T01:42:31;94498.69;;;14.40;42.44
30819;BME280;17546;42.674;23.284;2024-03-06T01:44:56;94461.97;;;14.22;42.67
30819;BME280;17546;42.674;23.284;2024-03-06T01:47:22;94494.72;;;14.35;42.48
30819;BME280;17546;42.674;23.284;2024-03-06T01:49:48;94481.69;;;14.24;42.50
30819;BME280;17546;42.674;23.284;2024-03-06T01:52:16;94481.84;;;14.13;42.72
30819;BME280;17546;42.674;23.284;2024-03-06T01:54:44;94466.44;;;14.06;42.47
30819;BME280;17546;42.674;23.284;2024-03-06T01:57:11;94471.72;;;14.10;42.44
30819;BME280;17546;42.674;23.284;2024-03-06T01:59:39;94500.41;;;14.24;42.72
30819;BME280;17546;42.674;23.284;2024-03-06T02:02:05;94494.69;;;14.16;42.94
30819;BME280;17546;42.674;23.284;2024-03-06T02:04:31;94491.63;;;14.20;42.81
30819;BME280;17546;42.674;23.284;2024-03-06T02:06:57;94481.06;;;14.13;42.59
30819;BME280;17546;42.674;23.284;2024-03-06T02:09:23;94504.94;;;14.27;42.65
30819;BME280;17546;42.674;23.284;2024-03-06T02:11:48;94506.75;;;14.24;42.50
30819;BME280;17546;42.674;23.284;2024-03-06T02:14:15;94506.75;;;14.24;42.65
30819;BME280;17546;42.674;23.284;2024-03-06T02:16:41;94508.34;;;14.20;42.44
30819;BME280;17546;42.674;23.284;2024-03-06T02:19:07;94503.53;;;14.20;42.54
30819;BME280;17546;42.674;23.284;2024-03-06T02:21:34;94488.16;;;14.14;42.33
30819;BME280;17546;42.674;23.284;2024-03-06T02:24:00;94498.84;;;14.10;42.52
30819;BME280;17546;42.674;23.284;2024-03-06T02:26:25;94524.97;;;14.25;42.46
30819;BME280;17546;42.674;23.284;2024-03-06T02:28:53;94514.81;;;14.28;42.08
30819;BME280;17546;42.674;23.284;2024-03-06T02:31:19;94527.75;;;14.25;42.20
30819;BME280;17546;42.674;23.284;2024-03-06T02:33:49;94523.81;;;14.15;42.34
30819;BME280;17546;42.674;23.284;2024-03-06T02:36:17;94517.81;;;14.11;42.40
30819;BME280;17546;42.674;23.284;2024-03-06T02:38:44;94523.44;;;14.05;42.21
30819;BME280;17546;42.674;23.284;2024-03-06T02:41:10;94508.75;;;13.86;42.51
30819;BME280;17546;42.674;23.284;2024-03-06T02:43:36;94534.34;;;14.03;42.36
30819;BME280;17546;42.674;23.284;2024-03-06T02:46:02;94509.91;;;13.96;42.14
30819;BME280;17546;42.674;23.284;2024-03-06T02:48:27;94529.53;;;14.04;42.37
30819;BME280;17546;42.674;23.284;2024-03-06T02:50:53;94501.81;;;13.93;42.12
30819;BME280;17546;42.674;23.284;2024-03-06T02:53:18;94512.69;;;13.96;42.09
30819;BME280;17546;42.674;23.284;2024-03-06T02:55:44;94491.75;;;13.90;42.02
30819;BME280;17546;42.674;23.284;2024-03-06T02:58:09;94521.41;;;14.06;41.93
30819;BME280;17546;42.674;23.284;2024-03-06T03:00:35;94491.41;;;13.74;41.96
30819;BME280;17546;42.674;23.284;2024-03-06T03:03:00;94521.88;;;13.91;42.11
30819;BME280;17546;42.674;23.284;2024-03-06T03:05:26;94509.09;;;13.77;42.10
30819;BME280;17546;42.674;23.284;2024-03-06T03:07:51;94506.50;;;13.84;41.92
30819;BME280;17546;42.674;23.284;2024-03-06T03:10:17;94527.13;;;13.95;42.10
30819;BME280;17546;42.674;23.284;2024-03-06T03:12:43;94531.19;;;13.94;42.17
30819;BME280;17546;42.674;23.284;2024-03-06T03:15:09;94521.41;;;13.87;42.01
30819;BME280;17546;42.674;23.284;2024-03-06T03:17:35;94490.56;;;13.60;42.38
30819;BME280;17546;42.674;23.284;2024-03-06T03:20:02;94524.41;;;13.89;42.23
30819;BME280;17546;42.674;23.284;2024-03-06T03:22:38;94515.50;;;13.91;41.91
30819;BME280;17546;42.674;23.284;2024-03-06T03:25:08;94531.72;;;13.68;42.15
30819;BME280;17546;42.674;23.284;2024-03-06T03:27:34;94540.19;;;13.81;42.03
30819;BME280;17546;42.674;23.284;2024-03-06T03:29:59;94533.84;;;13.56;42.28
30819;BME280;17546;42.674;23.284;2024-03-06T03:32:25;94528.16;;;13.42;42.26
30819;BME280;17546;42.674;23.284;2024-03-06T03:34:50;94542.78;;;13.49;42.50
30819;BME280;17546;42.674;23.284;2024-03-06T03:37:16;94527.53;;;13.31;42.61
30819;BME280;17546;42.674;23.284;2024-03-06T03:39:43;94522.56;;;13.18;42.71
30819;BME280;17546;42.674;23.284;2024-03-06T03:42:09;94513.00;;;13.13;42.68
30819;BME280;17546;42.674;23.284;2024-03-06T03:44:34;94532.59;;;13.32;42.80
30819;BME280;17546;42.674;23.284;2024-03-06T03:47:00;94521.34;;;13.13;42.79
30819;BME280;17546;42.674;23.284;2024-03-06T03:49:26;94532.91;;;13.23;42.84
30819;BME280;17546;42.674;23.284;2024-03-06T03:51:51;94536.50;;;13.42;42.43
30819;BME280;17546;42.674;23.284;2024-03-06T03:54:17;94543.38;;;13.41;42.31
30819;BME280;17546;42.674;23.284;2024-03-06T03:56:43;94531.38;;;13.22;42.55
30819;BME280;17546;42.674;23.284;2024-03-06T03:59:09;94526.84;;;13.19;42.77
30819;BME280;17546;42.674;23.284;2024-03-06T04:01:34;94541.41;;;13.36;42.63
30819;BME280;17546;42.674;23.284;2024-03-06T04:04:00;94530.34;;;13.25;42.46
30819;BME280;17546;42.674;23.284;2024-03-06T04:06:25;94530.34;;;13.25;42.42
30819;BME280;17546;42.674;23.284;2024-03-06T04:08:50;94548.94;;;13.41;42.31
30819;BME280;17546;42.674;23.284;2024-03-06T04:11:16;94549.88;;;13.50;42.33
30819;BME280;17546;42.674;23.284;2024-03-06T04:13:42;94548.41;;;13.43;42.39
30819;BME280;17546;42.674;23.284;2024-03-06T04:16:07;94553.44;;;13.44;42.42
30819;BME280;17546;42.674;23.284;2024-03-06T04:18:33;94550.44;;;13.42;42.23
30819;BME280;17546;42.674;23.284;2024-03-06T04:21:05;94541.22;;;13.29;42.46
30819;BME280;17546;42.674;23.284;2024-03-06T04:23:34;94575.59;;;13.56;42.13
30819;BME280;17546;42.674;23.284;2024-03-06T04:26:01;94576.06;;;13.60;41.99
30819;BME280;17546;42.674;23.284;2024-03-06T04:28:26;94547.59;;;13.48;41.93
30819;BME280;17546;42.674;23.284;2024-03-06T04:30:52;94569.59;;;13.52;41.79
30819;BME280;17546;42.674;23.284;2024-03-06T04:33:17;94554.97;;;13.46;41.82
30819;BME280;17546;42.674;23.284;2024-03-06T04:35:43;94580.88;;;13.59;41.68
30819;BME280;17546;42.674;23.284;2024-03-06T04:38:08;94570.44;;;13.41;41.93
30819;BME280;17546;42.674;23.284;2024-03-06T04:40:34;94558.38;;;13.33;42.07
30819;BME280;17546;42.674;23.284;2024-03-06T04:43:03;94588.88;;;13.44;42.21
30819;BME280;17546;42.674;23.284;2024-03-06T04:45:28;94573.63;;;13.51;41.66
30819;BME280;17546;42.674;23.284;2024-03-06T04:47:55;94576.03;;;13.35;41.99
30819;BME280;17546;42.674;23.284;2024-03-06T04:50:20;94591.53;;;13.55;41.49
30819;BME280;17546;42.674;23.284;2024-03-06T04:52:46;94596.13;;;13.53;41.73
30819;BME280;17546;42.674;23.284;2024-03-06T04:55:12;94594.88;;;13.54;41.53
30819;BME280;17546;42.674;23.284;2024-03-06T04:57:39;94589.34;;;13.48;41.57
30819;BME280;17546;42.674;23.284;2024-03-06T05:00:06;94574.78;;;13.36;41.54
30819;BME280;17546;42.674;23.284;2024-03-06T05:02:33;94603.84;;;13.41;41.75
30819;BME280;17546;42.674;23.284;2024-03-06T05:05:03;94594.44;;;13.44;42.07
30819;BME280;17546;42.674;23.284;2024-03-06T05:07:29;94592.69;;;13.41;41.85
30819;BME280;17546;42.674;23.284;2024-03-06T05:09:55;94579.47;;;13.17;42.27
30819;BME280;17546;42.674;23.284;2024-03-06T05:12:25;94605.06;;;13.46;42.13
30819;BME280;17546;42.674;23.284;2024-03-06T05:14:51;94603.94;;;13.30;42.56
30819;BME280;17546;42.674;23.284;2024-03-06T05:17:17;94606.44;;;13.28;42.42
30819;BME280;17546;42.674;23.284;2024-03-06T05:19:44;94597.84;;;13.26;42.51
30819;BME280;17546;42.674;23.284;2024-03-06T05:22:10;94587.31;;;13.18;42.36
30819;BME280;17546;42.674;23.284;2024-03-06T05:24:37;94603.88;;;13.35;42.32
30819;BME280;17546;42.674;23.284;2024-03-06T05:27:02;94603.53;;;13.44;42.30
30819;BME280;17546;42.674;23.284;2024-03-06T05:29:28;94608.06;;;13.48;42.33
30819;BME280;17546;42.674;23.284;2024-03-06T05:31:53;94615.03;;;13.60;42.08
30819;BME280;17546;42.674;23.284;2024-03-06T05:34:21;94601.69;;;13.53;42.26
30819;BME280;17546;42.674;23.284;2024-03-06T05:36:47;94599.00;;;13.41;42.26
30819;BME280;17546;42.674;23.284;2024-03-06T05:39:13;94617.31;;;13.61;42.32
30819;BME280;17546;42.674;23.284;2024-03-06T05:41:41;94602.22;;;13.51;42.29
30819;BME280;17546;42.674;23.284;2024-03-06T05:44:07;94601.13;;;13.60;42.11
30819;BME280;17546;42.674;23.284;2024-03-06T05:46:33;94614.72;;;13.69;42.29
30819;BME280;17546;42.674;23.284;2024-03-06T05:48:59;94625.50;;;13.78;42.11
30819;BME280;17546;42.674;23.284;2024-03-06T05:51:25;94625.97;;;13.82;42.26
30819;BME280;17546;42.674;23.284;2024-03-06T05:53:50;94629.28;;;13.81;42.37
30819;BME280;17546;42.674;23.284;2024-03-06T05:56:18;94604.56;;;13.72;42.45
30819;BME280;17546;42.674;23.284;2024-03-06T05:58:44;94630.97;;;13.90;42.01
30819;BME280;17546;42.674;23.284;2024-03-06T06:01:15;94632.47;;;13.91;42.46
30819;BME280;17546;42.674;23.284;2024-03-06T06:03:44;94632.88;;;14.00;42.29
30819;BME280;17546;42.674;23.284;2024-03-06T06:06:09;94639.91;;;14.07;42.11
30819;BME280;17546;42.674;23.284;2024-03-06T06:08:34;94633.63;;;14.01;41.94
30819;BME280;17546;42.674;23.284;2024-03-06T06:11:01;94637.97;;;14.21;41.81
30819;BME280;17546;42.674;23.284;2024-03-06T06:13:28;94640.06;;;14.15;42.10
30819;BME280;17546;42.674;23.284;2024-03-06T06:15:54;94646.72;;;14.31;42.00
30819;BME280;17546;42.674;23.284;2024-03-06T06:18:19;94633.03;;;14.33;41.84
30819;BME280;17546;42.674;23.284;2024-03-06T06:20:45;94645.63;;;14.39;41.75
30819;BME280;17546;42.674;23.284;2024-03-06T06:23:11;94647.28;;;14.48;41.64
30819;BME280;17546;42.674;23.284;2024-03-06T06:25:36;94644.72;;;14.50;41.54
30819;BME280;17546;42.674;23.284;2024-03-06T06:28:02;94636.13;;;14.48;41.60
30819;BME280;17546;42.674;23.284;2024-03-06T06:30:27;94634.34;;;14.51;41.83
30819;BME280;17546;42.674;23.284;2024-03-06T06:32:53;94613.69;;;14.40;41.42
30819;BME280;17546;42.674;23.284;2024-03-06T06:35:19;94628.66;;;14.37;42.02
30819;BME280;17546;42.674;23.284;2024-03-06T06:37:44;94601.56;;;14.38;41.46
30819;BME280;17546;42.674;23.284;2024-03-06T06:40:10;94610.91;;;14.40;41.76
30819;BME280;17546;42.674;23.284;2024-03-06T06:42:37;94621.00;;;14.43;41.71
30819;BME280;17546;42.674;23.284;2024-03-06T06:45:06;94631.88;;;14.66;41.72
30819;BME280;17546;42.674;23.284;2024-03-06T06:47:34;94619.19;;;14.46;42.10
30819;BME280;17546;42.674;23.284;2024-03-06T06:50:00;94619.53;;;14.61;41.62
30819;BME280;17546;42.674;23.284;2024-03-06T06:52:25;94633.03;;;14.76;41.46
30819;BME280;17546;42.674;23.284;2024-03-06T06:54:53;94645.34;;;14.86;41.42
30819;BME280;17546;42.674;23.284;2024-03-06T06:57:18;94633.44;;;14.86;41.57
30819;BME280;17546;42.674;23.284;2024-03-06T06:59:45;94635.75;;;14.82;41.61
30819;BME280;17546;42.674;23.284;2024-03-06T07:02:10;94621.38;;;14.34;42.16
30819;BME280;17546;42.674;23.284;2024-03-06T07:04:36;94644.41;;;14.78;41.60
30819;BME280;17546;42.674;23.284;2024-03-06T07:07:01;94616.31;;;14.57;41.82
30819;BME280;17546;42.674;23.284;2024-03-06T07:09:27;94623.91;;;14.76;41.65
30819;BME280;17546;42.674;23.284;2024-03-06T07:11:54;94649.00;;;14.95;41.64
30819;BME280;17546;42.674;23.284;2024-03-06T07:14:21;94639.81;;;15.00;41.45
30819;BME280;17546;42.674;23.284;2024-03-06T07:16:46;94621.41;;;14.29;42.67
30819;BME280;17546;42.674;23.284;2024-03-06T07:19:12;94622.66;;;14.09;43.07
30819;BME280;17546;42.674;23.284;2024-03-06T07:21:39;94651.63;;;14.68;42.33
30819;BME280;17546;42.674;23.284;2024-03-06T07:24:05;94646.31;;;14.45;43.01
30819;BME280;17546;42.674;23.284;2024-03-06T07:26:33;94614.50;;;13.92;43.88
30819;BME280;17546;42.674;23.284;2024-03-06T07:28:59;94639.31;;;14.14;43.87
30819;BME280;17546;42.674;23.284;2024-03-06T07:31:25;94654.00;;;14.15;43.95
30819;BME280;17546;42.674;23.284;2024-03-06T07:33:51;94624.72;;;13.78;44.33
30819;BME280;17546;42.674;23.284;2024-03-06T07:36:16;94651.44;;;13.62;45.31
30819;BME280;17546;42.674;23.284;2024-03-06T07:38:42;94629.94;;;13.32;45.52
30819;BME280;17546;42.674;23.284;2024-03-06T07:41:08;94609.19;;;12.92;46.36
30819;BME280;17546;42.674;23.284;2024-03-06T07:43:33;94614.13;;;14.01;44.32
30819;BME280;17546;42.674;23.284;2024-03-06T07:45:59;94644.34;;;12.89;47.09
30819;BME280;17546;42.674;23.284;2024-03-06T07:48:24;94631.88;;;13.73;45.30
30819;BME280;17546;42.674;23.284;2024-03-06T07:50:50;94645.00;;;14.27;44.13
30819;BME280;17546;42.674;23.284;2024-03-06T07:53:15;94607.81;;;14.44;43.62
30819;BME280;17546;42.674;23.284;2024-03-06T07:55:41;94635.63;;;14.50;43.58
30819;BME280;17546;42.674;23.284;2024-03-06T07:58:07;94637.03;;;14.62;43.37
30819;BME280;17546;42.674;23.284;2024-03-06T08:00:36;94627.31;;;14.25;44.16
30819;BME280;17546;42.674;23.284;2024-03-06T08:03:02;94646.31;;;14.89;43.07
30819;BME280;17546;42.674;23.284;2024-03-06T08:05:28;94621.34;;;14.59;43.27
30819;BME280;17546;42.674;23.284;2024-03-06T08:07:53;94621.75;;;13.76;44.74
30819;BME280;17546;42.674;23.284;2024-03-06T08:10:20;94621.41;;;14.10;44.22
30819;BME280;17546;42.674;23.284;2024-03-06T08:12:46;94622.84;;;14.79;42.84
30819;BME280;17546;42.674;23.284;2024-03-06T08:15:13;94657.38;;;14.95;42.81
30819;BME280;17546;42.674;23.284;2024-03-06T08:17:40;94655.59;;;14.97;42.75
30819;BME280;17546;42.674;23.284;2024-03-06T08:20:07;94653.66;;;15.24;42.31
30819;BME280;17546;42.674;23.284;2024-03-06T08:22:38;94658.34;;;15.35;42.31
30819;BME280;17546;42.674;23.284;2024-03-06T08:25:07;94666.88;;;15.56;41.81
30819;BME280;17546;42.674;23.284;2024-03-06T08:27:35;94631.00;;;14.77;42.87
30819;BME280;17546;42.674;23.284;2024-03-06T08:30:02;94650.81;;;14.30;43.95
30819;BME280;17546;42.674;23.284;2024-03-06T08:32:30;94633.09;;;14.90;42.81
30819;BME280;17546;42.674;23.284;2024-03-06T08:34:56;94635.34;;;15.29;42.14
30819;BME280;17546;42.674;23.284;2024-03-06T08:37:23;94648.03;;;15.30;41.95
30819;BME280;17546;42.674;23.284;2024-03-06T08:39:48;94629.16;;;15.49;41.60
30819;BME280;17546;42.674;23.284;2024-03-06T08:42:14;94638.66;;;15.60;41.26
30819;BME280;17546;42.674;23.284;2024-03-06T08:44:44;94650.78;;;15.81;41.44
30819;BME280;17546;42.674;23.284;2024-03-06T08:47:09;94625.88;;;14.81;42.86
30819;BME280;17546;42.674;23.284;2024-03-06T08:49:35;94628.13;;;14.63;43.47
30819;BME280;17546;42.674;23.284;2024-03-06T08:52:00;94641.69;;;14.29;44.11
30819;BME280;17546;42.674;23.284;2024-03-06T08:54:26;94647.22;;;14.97;42.61
30819;BME280;17546;42.674;23.284;2024-03-06T08:56:51;94648.13;;;14.86;42.99
30819;BME280;17546;42.674;23.284;2024-03-06T08:59:23;94635.72;;;15.20;42.33
30819;BME280;17546;42.674;23.284;2024-03-06T09:01:52;94637.09;;;15.45;41.82
30819;BME280;17546;42.674;23.284;2024-03-06T09:04:17;94642.38;;;14.60;43.33
30819;BME280;17546;42.674;23.284;2024-03-06T09:06:43;94650.25;;;15.50;41.74
30819;BME280;17546;42.674;23.284;2024-03-06T09:09:08;94651.97;;;15.86;41.07
30819;BME280;17546;42.674;23.284;2024-03-06T09:11:34;94631.03;;;14.52;43.43
30819;BME280;17546;42.674;23.284;2024-03-06T09:14:00;94652.63;;;15.60;41.81
30819;BME280;17546;42.674;23.284;2024-03-06T09:16:28;94631.13;;;16.00;40.71
30819;BME280;17546;42.674;23.284;2024-03-06T09:18:53;94648.13;;;16.29;40.45
30819;BME280;17546;42.674;23.284;2024-03-06T09:21:19;94639.94;;;16.71;40.15
30819;BME280;17546;42.674;23.284;2024-03-06T09:23:45;94637.13;;;16.71;39.25
30819;BME280;17546;42.674;23.284;2024-03-06T09:26:10;94632.63;;;15.88;40.60
30819;BME280;17546;42.674;23.284;2024-03-06T09:28:36;94644.44;;;17.01;38.94
30819;BME280;17546;42.674;23.284;2024-03-06T09:31:01;94615.56;;;17.40;38.28
30819;BME280;17546;42.674;23.284;2024-03-06T09:33:27;94639.13;;;17.66;37.75
30819;BME280;17546;42.674;23.284;2024-03-06T09:35:52;94643.22;;;18.28;36.64
30819;BME280;17546;42.674;23.284;2024-03-06T09:38:18;94640.69;;;18.45;36.34
30819;BME280;17546;42.674;23.284;2024-03-06T09:40:43;94617.19;;;18.27;35.93
30819;BME280;17546;42.674;23.284;2024-03-06T09:43:09;94625.47;;;18.33;35.92
30819;BME280;17546;42.674;23.284;2024-03-06T09:45:35;94618.09;;;17.93;35.93
30819;BME280;17546;42.674;23.284;2024-03-06T09:48:01;94638.44;;;18.44;35.69
30819;BME280;17546;42.674;23.284;2024-03-06T09:50:28;94638.38;;;19.01;34.65
30819;BME280;17546;42.674;23.284;2024-03-06T09:52:55;94636.91;;;19.08;34.18
30819;BME280;17546;42.674;23.284;2024-03-06T09:55:21;94607.53;;;19.16;34.59
30819;BME280;17546;42.674;23.284;2024-03-06T09:57:47;94633.59;;;18.81;34.99
30819;BME280;17546;42.674;23.284;2024-03-06T10:00:14;94613.78;;;19.46;34.61
30819;BME280;17546;42.674;23.284;2024-03-06T10:02:57;94618.72;;;20.07;32.70
30819;BME280;17546;42.674;23.284;2024-03-06T10:05:25;94631.81;;;19.81;32.75
30819;BME280;17546;42.674;23.284;2024-03-06T10:07:51;94604.41;;;19.43;33.65
30819;BME280;17546;42.674;23.284;2024-03-06T10:10:17;94621.91;;;19.95;31.67
30819;BME280;17546;42.674;23.284;2024-03-06T10:12:45;94616.44;;;19.67;32.47
30819;BME280;17546;42.674;23.284;2024-03-06T10:15:13;94609.94;;;19.05;33.55
30819;BME280;17546;42.674;23.284;2024-03-06T10:17:39;94593.13;;;18.68;33.25
30819;BME280;17546;42.674;23.284;2024-03-06T10:20:20;94612.63;;;19.26;32.77
30819;BME280;17546;42.674;23.284;2024-03-06T10:22:50;94594.72;;;19.98;31.90
30819;BME280;17546;42.674;23.284;2024-03-06T10:25:22;94610.81;;;20.36;31.81
30819;BME280;17546;42.674;23.284;2024-03-06T10:28:09;94608.53;;;20.34;31.56
30819;BME280;17546;42.674;23.284;2024-03-06T10:30:38;94608.78;;;20.06;30.73
30819;BME280;17546;42.674;23.284;2024-03-06T10:33:07;94601.81;;;20.30;31.15
30819;BME280;17546;42.674;23.284;2024-03-06T10:35:34;94590.16;;;20.49;31.11
30819;BME280;17546;42.674;23.284;2024-03-06T10:38:04;94595.66;;;20.95;30.43
30819;BME280;17546;42.674;23.284;2024-03-06T10:40:37;94567.34;;;20.06;31.10
30819;BME280;17546;42.674;23.284;2024-03-06T10:43:05;94559.81;;;20.39;30.28
30819;BME280;17546;42.674;23.284;2024-03-06T10:46:01;94580.56;;;20.52;30.38
30819;BME280;17546;42.674;23.284;2024-03-06T10:48:31;94548.25;;;20.05;30.69
30819;BME280;17546;42.674;23.284;2024-03-06T10:50:57;94569.13;;;20.50;29.90
30819;BME280;17546;42.674;23.284;2024-03-06T10:53:25;94565.50;;;20.72;29.57
30819;BME280;17546;42.674;23.284;2024-03-06T10:55:51;94562.03;;;20.97;29.19
30819;BME280;17546;42.674;23.284;2024-03-06T10:58:18;94561.63;;;20.52;29.98
30819;BME280;17546;42.674;23.284;2024-03-06T11:00:46;94556.44;;;20.33;29.65
30819;BME280;17546;42.674;23.284;2024-03-06T11:03:13;94530.63;;;21.08;29.45
30819;BME280;17546;42.674;23.284;2024-03-06T11:05:39;94541.16;;;21.33;29.04
30819;BME280;17546;42.674;23.284;2024-03-06T11:08:15;94521.38;;;21.40;28.65
30819;BME280;17546;42.674;23.284;2024-03-06T11:10:43;94537.13;;;21.51;28.79
30819;BME280;17546;42.674;23.284;2024-03-06T11:13:30;94533.22;;;21.72;28.33
30819;BME280;17546;42.674;23.284;2024-03-06T11:15:58;94531.78;;;21.80;27.91
30819;BME280;17546;42.674;23.284;2024-03-06T11:24:23;94517.72;;;21.30;27.72
30819;BME280;17546;42.674;23.284;2024-03-06T11:26:56;94521.56;;;21.17;27.52
30819;BME280;17546;42.674;23.284;2024-03-06T11:29:28;94502.47;;;21.41;27.92
30819;BME280;17546;42.674;23.284;2024-03-06T11:32:05;94502.00;;;21.19;27.93
30819;BME280;17546;42.674;23.284;2024-03-06T11:34:35;94503.69;;;21.73;27.39
30819;BME280;17546;42.674;23.284;2024-03-06T11:37:05;94504.53;;;21.83;27.32
30819;BME280;17546;42.674;23.284;2024-03-06T11:39:36;94504.81;;;21.52;27.46
30819;BME280;17546;42.674;23.284;2024-03-06T11:42:03;94502.13;;;21.04;28.21
30819;BME280;17546;42.674;23.284;2024-03-06T11:44:31;94490.81;;;21.62;27.87
30819;BME280;17546;42.674;23.284;2024-03-06T11:47:02;94483.41;;;21.49;27.29
30819;BME280;17546;42.674;23.284;2024-03-06T11:49:30;94496.31;;;21.77;26.51
30819;BME280;17546;42.674;23.284;2024-03-06T11:52:05;94473.66;;;21.50;26.56
30819;BME280;17546;42.674;23.284;2024-03-06T11:54:31;94472.81;;;21.57;26.60
30819;BME280;17546;42.674;23.284;2024-03-06T11:57:02;94474.72;;;21.55;26.78
30819;BME280;17546;42.674;23.284;2024-03-06T11:59:29;94462.94;;;21.23;27.14
30819;BME280;17546;42.674;23.284;2024-03-06T12:01:58;94472.72;;;20.49;28.11
30819;BME280;17546;42.674;23.284;2024-03-06T12:04:27;94477.63;;;21.14;27.12
30819;BME280;17546;42.674;23.284;2024-03-06T12:06:56;94464.72;;;21.61;26.40
30819;BME280;17546;42.674;23.284;2024-03-06T12:09:21;94458.94;;;21.94;26.06
30819;BME280;17546;42.674;23.284;2024-03-06T12:11:47;94465.75;;;22.26;25.98
30819;BME280;17546;42.674;23.284;2024-03-06T12:14:14;94461.00;;;22.46;25.93
30819;BME280;17546;42.674;23.284;2024-03-06T12:16:40;94457.78;;;22.32;26.14
30819;BME280;17546;42.674;23.284;2024-03-06T12:19:05;94457.28;;;22.43;25.70
30819;BME280;17546;42.674;23.284;2024-03-06T12:21:31;94444.88;;;22.29;25.89
30819;BME280;17546;42.674;23.284;2024-03-06T12:26:29;94443.00;;;22.41;25.61
30819;BME280;17546;42.674;23.284;2024-03-06T12:29:16;94466.75;;;22.03;24.23
30819;BME280;17546;42.674;23.284;2024-03-06T12:31:42;94449.47;;;21.99;24.66
30819;BME280;17546;42.674;23.284;2024-03-06T12:34:08;94456.13;;;22.12;24.43
30819;BME280;17546;42.674;23.284;2024-03-06T12:36:38;94444.09;;;21.94;24.61
30819;BME280;17546;42.674;23.284;2024-03-06T12:39:04;94450.38;;;22.19;24.19
30819;BME280;17546;42.674;23.284;2024-03-06T12:41:36;94449.94;;;21.53;24.78
30819;BME280;17546;42.674;23.284;2024-03-06T12:44:03;94447.34;;;20.97;25.22
30819;BME280;17546;42.674;23.284;2024-03-06T12:46:28;94448.47;;;20.94;25.66
30819;BME280;17546;42.674;23.284;2024-03-06T12:48:55;94424.88;;;20.90;26.40
30819;BME280;17546;42.674;23.284;2024-03-06T12:51:22;94446.75;;;19.47;32.03
30819;BME280;17546;42.674;23.284;2024-03-06T12:53:47;94462.81;;;19.92;32.15
30819;BME280;17546;42.674;23.284;2024-03-06T12:56:13;94472.38;;;19.89;32.43